Stations météo

réclame
Mon MeteoGroup
Hoerby, Suède (2623): Température de l'air & dewpoint: 19.09.2018 09:00:00 - 25.09.2018 09:00:00 (CEST)Hoerby, Suède (2623): Vitesse du vent & gusts: 19.09.2018 09:00:00 - 25.09.2018 09:00:00 (CEST)Hoerby, Suède (2623): Direction du vent: 19.09.2018 09:00:00 - 25.09.2018 09:00:00 (CEST)Hoerby, Suède (2623): visibility: 19.09.2018 09:00:00 - 25.09.2018 09:00:00 (CEST)Hoerby, Suède (2623): Quantités de précipitations: 19.09.2018 09:00:00 - 25.09.2018 09:00:00 (CEST)
Date & Time tt [°C] td [°C] ff [km/h] ff [knt] fx [km/h] fx [knt] dd vv [km] rr [mm]
25.09.2018 09:00:00 6,8 4,6 0 0 7 4 N 40 0,0
25.09.2018 08:00:00 3,6 2,4 0 0 7 4 N 49 0,0
25.09.2018 07:00:00 1,7 1,0 0 0 4 2 N 42 0,0
25.09.2018 06:00:00 1,8 1,2 0 0 4 2 N 50 0,0
25.09.2018 05:00:00 0,2 -0,4 2 1 4 2 E 50 0,0
25.09.2018 04:00:00 0,4 -0,3 0 0 4 2 N 50 0,0
25.09.2018 03:00:00 0,9 0,2 0 0 4 2 N 50 0,0
25.09.2018 02:00:00 1,1 0,4 0 0 3 2 N 50 0,0
25.09.2018 01:00:00 1,4 0,7 0 0 6 3 N 50 0,0
25.09.2018 00:00:00 2,1 0,9 0 0 8 5 N 50 0,0
24.09.2018 23:00:00 3,4 1,4 3 2 9 5 NNW 50 0,0
24.09.2018 22:00:00 4,6 2,0 5 3 16 8 NW 49 0,0
24.09.2018 21:00:00 5,3 2,0 5 3 24 13 WNW 50 0,0
24.09.2018 20:00:00 6,7 2,4 8 4 28 15 WNW 50 0,0
24.09.2018 19:00:00 8,0 2,2 14 8 28 15 WNW 50 0,0
24.09.2018 18:00:00 8,9 2,0 9 5 23 12 NW 50 0,0
24.09.2018 17:00:00 9,6 2,7 9 5 36 20 WNW 45 0,0
24.09.2018 16:00:00 9,9 1,3 11 6 36 20 WNW 50 0,0
24.09.2018 15:00:00 10,3 2,9 17 9 35 19 W 50 0,0
24.09.2018 14:00:00 12,0 2,2 13 7 35 19 WNW 44 0,0
24.09.2018 13:00:00 11,5 0,3 15 8 35 19 NW 48 0,0
24.09.2018 12:00:00 11,1 2,9 15 8 28 15 NW 38 0,0
24.09.2018 11:00:00 10,0 4,8 11 6 24 13 NW 41 0,0
24.09.2018 10:00:00 8,7 4,5 9 5 20 11 NW 42 0,0
24.09.2018 09:00:00 7,7 5,2 6 3 14 8 NW 44 0,0
24.09.2018 08:00:00 6,8 5,1 6 3 17 9 WNW 49 0,0
24.09.2018 07:00:00 5,3 4,1 4 2 17 9 NW 50 0,0
24.09.2018 06:00:00 5,9 4,9 5 3 12 6 NW 45 0,0
24.09.2018 05:00:00 5,2 4,2 0 0 16 8 N 50 0,0
24.09.2018 04:00:00 6,1 5,1 4 2 23 13 W 50 0,0
24.09.2018 03:00:00 6,4 4,6 6 3 23 13 NW 50 0,5
24.09.2018 02:00:00 7,1 6,2 3 1 21 11 WNW 19 0,0
24.09.2018 01:00:00 7,5 6,6 4 2 11 6 WNW 23 0,0
24.09.2018 00:00:00 7,4 6,8 4 2 11 6 W 29 0,0
23.09.2018 23:00:00 7,5 6,6 0 0 20 11 N 43 0,0
23.09.2018 22:00:00 7,5 6,6 3 1 20 11 W 50 0,9
23.09.2018 21:00:00 7,9 7,0 3 2 26 14 W 32 1,0
23.09.2018 20:00:00 8,0 6,6 5 3 26 14 W 11 1,9
23.09.2018 19:00:00 8,8 7,1 3 1 26 14 NW 28 0,0
23.09.2018 18:00:00 9,2 7,0 6 3 27 15 NW 25 0,8
23.09.2018 17:00:00 12,0 5,2 10 6 27 15 W 41 0,0
23.09.2018 16:00:00 12,2 5,1 12 6 37 20 WNW 37 0,0
23.09.2018 15:00:00 13,4 4,3 13 7 37 20 W 31 0,0
23.09.2018 14:00:00 14,5 4,2 13 7 36 20 W 25 0,0
23.09.2018 13:00:00 13,7 4,0 16 9 36 20 W 31 0,0
23.09.2018 12:00:00 13,1 4,5 17 9 36 20 W 27 0,1
23.09.2018 11:00:00 10,2 7,3 13 7 36 20 W 13 0,4
23.09.2018 10:00:00 11,3 7,4 13 7 31 17 W 10 0,0
23.09.2018 09:00:00 10,6 8,0 8 5 23 12 WSW 21 0,0
23.09.2018 08:00:00 9,6 7,5 8 4 21 12 WSW 22 0,0
23.09.2018 07:00:00 9,1 7,1 8 4 24 13 WSW 21 0,0
23.09.2018 06:00:00 9,7 7,6 10 5 26 14 WSW 21 0,0
23.09.2018 05:00:00 9,5 7,6 10 6 29 16 WSW 21 0,1
23.09.2018 04:00:00 9,8 7,7 12 7 29 16 WSW 19 0,0
23.09.2018 03:00:00 9,8 7,6 12 7 29 16 WSW 17 0,0
23.09.2018 02:00:00 9,9 7,3 11 6 30 16 WSW 23 0,0
23.09.2018 01:00:00 10,0 6,9 11 6 34 19 WSW 20 0,0
23.09.2018 00:00:00 10,3 6,6 12 7 34 19 WSW 20 0,0
22.09.2018 23:00:00 10,0 6,2 13 7 34 18 WSW 25 0,0
22.09.2018 22:00:00 10,2 6,3 12 6 34 18 WSW 27 0,0
22.09.2018 21:00:00 10,6 5,1 15 8 34 18 WSW 36 0,0
22.09.2018 20:00:00 10,1 5,7 7 4 29 15 SW 34 0,0
22.09.2018 19:00:00 10,5 5,5 7 4 34 19 WSW 40 0,0
22.09.2018 18:00:00 11,7 5,3 13 7 43 23 W 36 0,0
22.09.2018 17:00:00 11,0 7,7 11 6 43 23 W 27 1,1
22.09.2018 16:00:00 11,3 7,0 10 5 40 22 W 27 0,0
22.09.2018 15:00:00 11,2 7,9 14 7 43 23 WSW 17 0,1
22.09.2018 14:00:00 12,6 8,7 12 7 46 25 WSW 30 2,0
22.09.2018 13:00:00 11,4 7,5 9 5 46 25 W 27 0,3
22.09.2018 12:00:00 13,1 5,3 16 9 41 22 WSW 30 0,0
22.09.2018 11:00:00 12,9 6,7 16 9 41 22 WSW 23 0,0
22.09.2018 10:00:00 12,6 7,3 17 9 40 21 WSW 17 0,0
22.09.2018 09:00:00 11,1 7,2 13 7 31 17 WSW 17 0,0
22.09.2018 08:00:00 9,9 6,6 9 5 34 18 WSW 19 0,0
22.09.2018 07:00:00 10,0 6,9 15 8 38 21 WSW 24 0,0
22.09.2018 06:00:00 9,7 7,0 13 7 39 21 WSW 28 0,0
22.09.2018 05:00:00 9,3 5,8 16 8 49 26 WSW 41 0,3
22.09.2018 04:00:00 10,3 5,9 16 9 49 26 WSW 48 0,0
22.09.2018 03:00:00 10,7 7,0 15 8 46 25 WSW 28 0,0
22.09.2018 02:00:00 10,9 6,8 16 8 50 27 WSW 31 0,0
22.09.2018 01:00:00 11,7 6,4 22 12 50 27 SW 29 0,0
22.09.2018 00:00:00 11,7 6,4 21 11 45 24 SW 23 0,0
21.09.2018 23:00:00 11,5 6,6 14 8 33 18 SW 23 0,0
21.09.2018 22:00:00 11,5 6,6 14 8 41 22 SW 30 0,0
21.09.2018 21:00:00 12,3 6,3 13 7 41 22 WSW 28 0,0
21.09.2018 20:00:00 12,7 7,6 16 9 35 19 WSW 24 0,0
21.09.2018 19:00:00 12,5 9,3 9 5 35 19 WSW 19 0,0
21.09.2018 18:00:00 12,0 10,6 5 3 56 30 WSW 12 1,5
21.09.2018 17:00:00 11,5 9,1 18 10 56 30 WSW 6 4,5
21.09.2018 16:00:00 16,8 12,1 19 10 54 29 W 27 0,0
21.09.2018 15:00:00 23,0 11,7 22 12 56 30 SSW 31 0,0
21.09.2018 14:00:00 23,6 11,9 25 14 56 30 SSW 18 0,0
21.09.2018 13:00:00 22,7 13,2 25 13 49 26 S 22 0,0
21.09.2018 12:00:00 22,8 13,3 27 14 49 26 S 19 0,0
21.09.2018 11:00:00 22,1 12,6 23 12 37 20 S 26 0,0
21.09.2018 10:00:00 20,7 12,4 19 11 37 20 S 26 0,0
21.09.2018 09:00:00 20,0 13,0 19 11 35 19 S 26 0,0
21.09.2018 08:00:00 17,8 12,9 10 6 22 12 SSE 22 0,0
21.09.2018 07:00:00 16,7 12,6 11 6 24 13 SSE 19 0,0
21.09.2018 06:00:00 16,5 12,8 13 7 24 13 SSE 19 0,0
21.09.2018 05:00:00 16,5 13,2 13 7 21 12 SSE 20 0,0
21.09.2018 04:00:00 16,5 13,4 10 5 17 9 SSE 20 0,0
21.09.2018 03:00:00 16,4 13,7 9 5 15 8 SSE 19 0,0
21.09.2018 02:00:00 16,1 13,8 6 3 18 10 SE 16 0,0
21.09.2018 01:00:00 16,6 14,1 7 4 18 10 S 17 0,0
21.09.2018 00:00:00 17,3 14,4 10 6 17 9 S 19 0,0
20.09.2018 23:00:00 17,7 14,0 5 3 12 7 SSW 23 0,0
20.09.2018 22:00:00 17,9 13,8 5 3 18 10 SSW 25 0,0
20.09.2018 21:00:00 18,3 13,4 7 4 23 13 S 23 0,0
20.09.2018 20:00:00 18,7 13,1 9 5 23 13 SW 26 0,0
20.09.2018 19:00:00 18,9 13,3 11 6 29 16 SW 26 0,0
20.09.2018 18:00:00 19,4 13,3 13 7 34 18 SW 26 0,0
20.09.2018 17:00:00 19,5 13,4 14 8 34 18 WSW 37 0,0
20.09.2018 16:00:00 19,8 13,9 16 9 34 18 SW 23 0,0
20.09.2018 15:00:00 19,2 14,0 12 7 34 18 SW 22 0,0
20.09.2018 14:00:00 19,1 14,1 13 7 33 18 SW 18 0,0
20.09.2018 13:00:00 18,9 14,0 15 8 33 18 SW 19 0,0
20.09.2018 12:00:00 19,4 14,0 15 8 32 17 SW 21 0,0
20.09.2018 11:00:00 18,5 14,4 11 6 27 15 SW 16 0,0
20.09.2018 10:00:00 19,0 14,7 14 8 32 17 SW 18 0,0
20.09.2018 09:00:00 17,4 14,3 13 7 32 17 SW 16 0,0
20.09.2018 08:00:00 17,0 13,7 12 6 22 12 SSW 17 0,0
20.09.2018 07:00:00 16,9 13,6 7 4 24 13 SW 15 0,0
20.09.2018 06:00:00 17,1 13,4 10 6 24 13 SW 18 0,0
20.09.2018 05:00:00 16,5 13,4 9 5 19 10 SW 18 0,0
20.09.2018 04:00:00 16,4 12,9 7 4 18 10 SSW 20 0,0
20.09.2018 03:00:00 16,4 12,9 6 3 21 11 SSW 20 0,0
20.09.2018 02:00:00 17,2 12,9 8 4 21 11 SSW 23 0,0
20.09.2018 01:00:00 17,1 13,2 7 4 31 17 SSW 24 0,0
20.09.2018 00:00:00 17,2 12,7 8 4 31 17 SSW 30 0,0
19.09.2018 23:00:00 16,9 12,4 11 6 28 15 S 27 0,0
19.09.2018 22:00:00 16,9 12,4 16 9 25 13 S 25 0,0
19.09.2018 21:00:00 17,2 12,9 12 7 20 11 S 22 0,0
19.09.2018 20:00:00 17,0 13,9 6 3 19 10 SSE 17 0,0
19.09.2018 19:00:00 18,6 13,9 9 5 23 13 SSW 22 0,0
19.09.2018 18:00:00 20,0 13,7 8 4 28 15 SSW 24 0,0
19.09.2018 17:00:00 20,9 13,6 13 7 31 17 SW 22 0,0
19.09.2018 16:00:00 21,5 13,7 13 7 34 18 SW 23 0,0
19.09.2018 15:00:00 21,5 12,6 16 8 34 18 SW 35 0,0
19.09.2018 14:00:00 21,7 13,6 15 8 30 16 SSW 28 0,0
19.09.2018 13:00:00 21,6 13,8 13 7 24 13 SW 22 0,0
19.09.2018 12:00:00 19,9 14,7 9 5 20 11 WSW 18 0,0
19.09.2018 11:00:00 18,5 14,8 8 4 18 10 SW 11 0,0
19.09.2018 10:00:00 16,5 14,7 8 5 19 10 W 8 0,0
19.09.2018 09:00:00 15,8 14,7 7 4 20 11 W 7 0,0

tt = Température de l'air
td = dewpoint
ff = Vitesse du vent
fx = gusts
dd = Direction du vent
vv = visibility
rr = Quantités de précipitations

stations d'obs. à proximité